createdAt,value
2023-02-02T00:02:00.988Z,97973.02
2023-02-02T00:05:07.675Z,97974.27
2023-02-02T00:08:13.917Z,97974.76
2023-02-02T00:11:21.042Z,97968.55
2023-02-02T00:14:27.905Z,97972.05
2023-02-02T00:17:34.277Z,97971.99
2023-02-02T00:20:38.754Z,97979.34
2023-02-02T00:23:45.255Z,97982.50
2023-02-02T00:26:53.461Z,97983.31
2023-02-02T00:29:59.949Z,97986.05
2023-02-02T00:33:04.338Z,97992.24
2023-02-02T00:36:11.325Z,97998.21
2023-02-02T00:39:20.323Z,98004.73
2023-02-02T00:42:26.613Z,98014.06
2023-02-02T00:45:31.573Z,98012.60
2023-02-02T00:48:37.830Z,98008.41
2023-02-02T00:51:44.090Z,98007.95
2023-02-02T00:54:50.311Z,98011.77
2023-02-02T00:57:56.609Z,98014.68
2023-02-02T01:01:01.126Z,98012.44
2023-02-02T01:04:07.759Z,98014.48
2023-02-02T01:07:14.040Z,98014.52
2023-02-02T01:10:20.384Z,98014.09
2023-02-02T01:13:24.871Z,98013.31
2023-02-02T01:16:31.200Z,98017.16
2023-02-02T01:19:35.763Z,98018.80
2023-02-02T01:22:42.029Z,98022.27
2023-02-02T01:25:54.246Z,98028.75
2023-02-02T01:29:00.530Z,98030.85
2023-02-02T01:32:05.491Z,98041.35
2023-02-02T01:35:12.571Z,98046.49
2023-02-02T01:38:18.959Z,98043.78
2023-02-02T01:41:25.009Z,98044.10
2023-02-02T01:45:07.406Z,98044.23
2023-02-02T01:48:14.684Z,98041.83
2023-02-02T01:51:24.099Z,98039.98
2023-02-02T01:54:34.979Z,98043.39
2023-02-02T01:57:45.007Z,98048.59
2023-02-02T02:00:51.923Z,98043.18
2023-02-02T02:03:58.817Z,98046.51
2023-02-02T02:07:06.230Z,98048.86
2023-02-02T02:10:13.373Z,98048.77
2023-02-02T02:13:21.024Z,98051.98
2023-02-02T02:16:37.385Z,98060.19
2023-02-02T02:20:36.403Z,98062.60
2023-02-02T02:24:39.069Z,98066.60
2023-02-02T02:28:06.008Z,98076.65
2023-02-02T02:31:41.622Z,98083.65
2023-02-02T02:34:49.475Z,98085.52
2023-02-02T02:38:01.971Z,98086.40
2023-02-02T02:41:13.591Z,98093.34
2023-02-02T02:44:21.172Z,98093.00
2023-02-02T02:47:30.191Z,98100.58
2023-02-02T02:50:36.490Z,98097.86
2023-02-02T02:53:41.068Z,98103.53
2023-02-02T02:57:05.258Z,98106.84
2023-02-02T03:00:28.163Z,98104.39
2023-02-02T03:03:50.575Z,98106.11
2023-02-02T03:07:03.083Z,98100.67
2023-02-02T03:10:12.954Z,98107.06
2023-02-02T03:13:20.437Z,98110.97
2023-02-02T03:16:26.695Z,98110.95
2023-02-02T03:19:33.010Z,98115.41
2023-02-02T03:22:37.531Z,98119.80
2023-02-02T03:25:44.828Z,98120.00
2023-02-02T03:28:54.907Z,98124.20
2023-02-02T03:32:01.273Z,98127.27
2023-02-02T03:35:06.096Z,98131.82
2023-02-02T03:38:13.146Z,98130.98
2023-02-02T03:41:19.600Z,98138.89
2023-02-02T03:44:25.825Z,98146.66
2023-02-02T03:47:32.939Z,98146.20
2023-02-02T03:50:40.047Z,98144.84
2023-02-02T03:53:47.716Z,98152.52
2023-02-02T03:56:54.083Z,98151.98
2023-02-02T04:00:00.373Z,98151.17
2023-02-02T04:03:05.458Z,98149.72
2023-02-02T04:06:11.734Z,98148.20
2023-02-02T04:09:17.864Z,98142.14
2023-02-02T04:12:24.079Z,98151.21
2023-02-02T04:15:30.313Z,98155.14
2023-02-02T04:18:34.885Z,98163.33
2023-02-02T04:21:41.301Z,98160.96
2023-02-02T04:24:47.613Z,98162.04
2023-02-02T04:27:52.153Z,98158.71
2023-02-02T04:30:59.824Z,98163.55
2023-02-02T04:34:06.389Z,98167.86
2023-02-02T04:37:13.109Z,98169.71
2023-02-02T04:40:19.864Z,98167.59
2023-02-02T04:43:26.183Z,98168.09
2023-02-02T04:46:30.688Z,98167.27
2023-02-02T04:49:36.934Z,98168.36
2023-02-02T04:52:43.178Z,98171.35
2023-02-02T04:55:49.470Z,98175.19
2023-02-02T04:58:55.163Z,98177.42
2023-02-02T05:02:02.520Z,98171.48
2023-02-02T05:05:12.052Z,98171.76
2023-02-02T05:08:18.307Z,98174.30
2023-02-02T05:11:25.245Z,98171.66
2023-02-02T05:14:31.447Z,98170.95
2023-02-02T05:17:37.679Z,98172.34
2023-02-02T05:20:42.277Z,98173.13
2023-02-02T05:23:49.045Z,98176.83
2023-02-02T05:26:58.702Z,98177.85
2023-02-02T05:30:05.819Z,98179.96
2023-02-02T05:33:12.049Z,98177.58
2023-02-02T05:36:18.921Z,98179.56
2023-02-02T05:39:25.277Z,98178.33
2023-02-02T05:42:31.562Z,98175.58
2023-02-02T05:45:36.241Z,98174.17
2023-02-02T05:48:42.652Z,98169.19
2023-02-02T05:51:48.672Z,98171.55
2023-02-02T05:54:53.269Z,98172.05
2023-02-02T05:57:59.608Z,98170.90
2023-02-02T06:01:04.234Z,98164.89
2023-02-02T06:04:10.486Z,98164.66
2023-02-02T06:07:16.789Z,98163.96
2023-02-02T06:10:21.500Z,98165.00
2023-02-02T06:13:28.624Z,98168.23
2023-02-02T06:16:34.758Z,98173.47
2023-02-02T06:19:41.216Z,98175.27
2023-02-02T06:22:48.368Z,98178.52
2023-02-02T06:25:54.744Z,98177.76
2023-02-02T06:28:59.270Z,98178.15
2023-02-02T06:32:05.917Z,98175.40
2023-02-02T06:35:13.264Z,98175.31
2023-02-02T06:38:19.659Z,98175.19
2023-02-02T06:41:24.479Z,98168.17
2023-02-02T06:44:30.744Z,98162.06
2023-02-02T06:47:37.141Z,98160.09
2023-02-02T06:50:43.674Z,98155.23
2023-02-02T06:53:50.395Z,98155.83
2023-02-02T06:56:56.684Z,98157.16
2023-02-02T07:00:01.832Z,98151.20
2023-02-02T07:03:08.003Z,98155.23
2023-02-02T07:06:19.724Z,98158.33
2023-02-02T07:09:25.984Z,98159.31
2023-02-02T07:12:32.184Z,98154.33
2023-02-02T07:15:39.695Z,98160.55
2023-02-02T07:18:48.330Z,98165.05
2023-02-02T07:21:54.642Z,98156.23
2023-02-02T07:24:59.256Z,98152.23
2023-02-02T07:28:05.727Z,98155.02
2023-02-02T07:31:20.313Z,98157.78
2023-02-02T07:34:26.957Z,98151.24
2023-02-02T07:37:33.230Z,98153.65
2023-02-02T07:40:39.507Z,98154.22
2023-02-02T07:43:44.294Z,98149.02
2023-02-02T07:46:50.816Z,98146.40
2023-02-02T07:49:57.039Z,98150.70
2023-02-02T07:53:03.336Z,98152.55
2023-02-02T07:56:09.556Z,98145.01
2023-02-02T07:59:16.196Z,98146.60
2023-02-02T08:02:22.494Z,98146.85
2023-02-02T08:05:27.403Z,98142.88
2023-02-02T08:08:33.786Z,98139.66
2023-02-02T08:11:40.674Z,98137.41
2023-02-02T08:14:46.908Z,98137.67
2023-02-02T08:17:53.100Z,98140.80
2023-02-02T08:21:01.228Z,98144.64
2023-02-02T08:24:08.005Z,98148.27
2023-02-02T08:27:14.317Z,98150.08
2023-02-02T08:30:19.485Z,98154.28
2023-02-02T08:33:25.782Z,98151.38
2023-02-02T08:36:31.189Z,98148.96
2023-02-02T08:39:37.425Z,98143.48
2023-02-02T08:42:44.214Z,98143.45
2023-02-02T08:46:04.564Z,98142.98
2023-02-02T08:49:13.644Z,98142.22
2023-02-02T08:52:19.920Z,98142.58
2023-02-02T08:55:26.354Z,98137.62
2023-02-02T08:58:33.974Z,98129.64
2023-02-02T09:01:40.262Z,98132.20
2023-02-02T09:04:45.663Z,98140.57
2023-02-02T09:07:51.915Z,98138.95
2023-02-02T09:10:58.167Z,98139.51
2023-02-02T09:14:06.596Z,98140.77
2023-02-02T09:17:13.170Z,98139.12
2023-02-02T09:20:20.253Z,98130.95
2023-02-02T09:23:27.325Z,98140.88
2023-02-02T09:26:33.613Z,98141.61
2023-02-02T09:29:38.374Z,98137.09
2023-02-02T09:32:45.728Z,98129.20
2023-02-02T09:35:51.985Z,98128.70
2023-02-02T09:38:58.210Z,98135.27
2023-02-02T09:42:16.744Z,98138.05
2023-02-02T09:45:33.512Z,98129.71
2023-02-02T09:48:47.608Z,98130.84
2023-02-02T09:51:59.937Z,98134.07
2023-02-02T09:55:13.516Z,98148.81
2023-02-02T09:58:24.220Z,98137.35
2023-02-02T10:01:36.592Z,98135.70
2023-02-02T10:04:45.549Z,98146.20
2023-02-02T10:07:58.173Z,98144.77
2023-02-02T10:11:11.914Z,98148.10
2023-02-02T10:14:29.059Z,98154.77
2023-02-02T10:17:43.391Z,98156.73
2023-02-02T10:20:57.805Z,98160.33
2023-02-02T10:24:05.635Z,98163.73
2023-02-02T10:27:17.661Z,98167.68
2023-02-02T10:30:36.060Z,98173.25
2023-02-02T10:33:42.682Z,98177.30
2023-02-02T10:37:00.871Z,98181.20
2023-02-02T10:40:24.358Z,98187.35
2023-02-02T10:43:49.258Z,98188.70
2023-02-02T10:46:59.038Z,98192.29
2023-02-02T10:50:19.785Z,98193.98
2023-02-02T10:53:29.026Z,98197.30
2023-02-02T10:56:41.910Z,98199.48
2023-02-02T10:59:58.628Z,98199.67
2023-02-02T11:03:07.377Z,98198.83
2023-02-02T11:06:34.704Z,98199.11
2023-02-02T11:09:44.281Z,98209.55
2023-02-02T11:12:53.215Z,98216.89
2023-02-02T11:16:32.656Z,98218.11
2023-02-02T11:19:45.536Z,98220.06
2023-02-02T11:23:03.284Z,98218.55
2023-02-02T11:26:10.199Z,98224.84
2023-02-02T11:29:21.449Z,98225.27
2023-02-02T11:32:33.205Z,98227.70
2023-02-02T11:35:53.559Z,98224.77
2023-02-02T11:39:21.030Z,98229.69
2023-02-02T11:42:29.146Z,98236.66
2023-02-02T11:45:39.210Z,98239.41
2023-02-02T11:48:52.467Z,98237.79
2023-02-02T11:52:04.560Z,98241.27
2023-02-02T11:55:19.925Z,98243.75
2023-02-02T11:58:28.585Z,98249.50
2023-02-02T12:01:36.948Z,98254.47
2023-02-02T12:04:43.613Z,98256.19
2023-02-02T12:07:50.407Z,98262.14
2023-02-02T12:11:01.787Z,98265.13
2023-02-02T12:14:24.996Z,98269.64
2023-02-02T12:17:40.547Z,98264.17
2023-02-02T12:20:52.727Z,98263.12
2023-02-02T12:24:14.911Z,98269.42
2023-02-02T12:27:32.139Z,98270.38
2023-02-02T12:30:49.509Z,98272.55
2023-02-02T12:34:05.552Z,98276.52
2023-02-02T12:37:21.925Z,98281.80
2023-02-02T12:40:55.852Z,98280.77
2023-02-02T12:44:07.086Z,98287.05
2023-02-02T12:47:22.915Z,98289.11
2023-02-02T12:50:35.971Z,98294.38
2023-02-02T12:54:34.379Z,98300.94
2023-02-02T12:57:41.063Z,98303.67
2023-02-02T13:01:11.333Z,98309.79
2023-02-02T13:08:02.541Z,98316.75
2023-02-02T13:11:30.167Z,98326.52
2023-02-02T13:14:41.901Z,98333.25
2023-02-02T13:17:52.151Z,98334.94
2023-02-02T13:21:03.028Z,98339.48
2023-02-02T13:24:16.678Z,98344.15
2023-02-02T13:27:25.113Z,98347.38
2023-02-02T13:30:36.073Z,98355.23
2023-02-02T13:33:46.027Z,98366.93
2023-02-02T13:36:57.089Z,98370.91
2023-02-02T13:40:07.146Z,98372.25
2023-02-02T13:43:31.956Z,98373.71
2023-02-02T13:46:46.840Z,98380.20
2023-02-02T13:50:04.120Z,98385.34
2023-02-02T13:53:31.397Z,98392.70
2023-02-02T13:56:57.735Z,98396.97
2023-02-02T14:00:15.218Z,98406.52
2023-02-02T14:03:40.098Z,98407.48
2023-02-02T14:06:58.447Z,98414.39
2023-02-02T14:10:05.733Z,98414.86
2023-02-02T14:13:38.597Z,98419.80
2023-02-02T14:16:55.891Z,98420.34
2023-02-02T14:20:03.617Z,98433.81
2023-02-02T14:23:48.498Z,98445.50
2023-02-02T14:26:56.778Z,98453.08
2023-02-02T14:30:17.713Z,98458.55
2023-02-02T14:33:47.708Z,98465.66
2023-02-02T14:37:10.329Z,98465.77
2023-02-02T14:40:40.086Z,98468.23
2023-02-02T14:43:52.007Z,98466.85
2023-02-02T14:46:59.302Z,98471.88
2023-02-02T14:50:13.762Z,98483.31
2023-02-02T14:53:28.694Z,98492.40
2023-02-02T14:56:50.103Z,98494.14
2023-02-02T15:00:01.167Z,98502.58
2023-02-02T15:03:36.289Z,98506.11
2023-02-02T15:06:43.359Z,98512.91
2023-02-02T15:09:49.668Z,98518.77
2023-02-02T15:13:04.658Z,98524.11
2023-02-02T15:16:23.179Z,98530.64
2023-02-02T15:19:37.017Z,98538.08
2023-02-02T15:22:50.424Z,98544.33
2023-02-02T15:26:00.987Z,98546.91
2023-02-02T15:29:17.424Z,98557.40
2023-02-02T15:32:28.501Z,98561.77
2023-02-02T15:35:38.138Z,98564.87
2023-02-02T15:38:47.764Z,98572.02
2023-02-02T15:42:17.121Z,98576.08
2023-02-02T15:45:43.649Z,98580.23
2023-02-02T15:49:12.561Z,98596.58
2023-02-02T15:52:25.324Z,98604.15
2023-02-02T15:55:36.370Z,98610.27
2023-02-02T15:58:48.825Z,98621.38
2023-02-02T16:02:05.657Z,98623.16
2023-02-02T16:05:40.001Z,98628.34
2023-02-02T16:08:46.783Z,98630.54
2023-02-02T16:11:53.703Z,98637.83
2023-02-02T16:15:00.110Z,98647.90
2023-02-02T16:18:15.549Z,98652.91
2023-02-02T16:21:26.097Z,98658.93
2023-02-02T16:24:35.602Z,98667.30
2023-02-02T16:27:47.844Z,98671.70
2023-02-02T16:30:55.642Z,98676.76
2023-02-02T16:34:02.817Z,98689.10
2023-02-02T16:37:14.474Z,98706.26
2023-02-02T16:40:27.297Z,98715.07
2023-02-02T16:43:33.711Z,98722.42
2023-02-02T16:46:46.149Z,98726.02
2023-02-02T16:49:52.969Z,98734.21
2023-02-02T16:53:02.851Z,98740.20
2023-02-02T16:56:10.423Z,98743.31
2023-02-02T16:59:24.425Z,98743.45
2023-02-02T17:02:35.234Z,98747.23
2023-02-02T17:05:50.823Z,98754.36
2023-02-02T17:08:57.062Z,98761.08
2023-02-02T17:12:09.295Z,98768.61
2023-02-02T17:15:35.999Z,98773.83
2023-02-02T17:18:42.212Z,98781.78
2023-02-02T17:21:49.597Z,98788.11
2023-02-02T17:24:56.686Z,98796.16
2023-02-02T17:28:03.880Z,98806.95
2023-02-02T17:31:13.364Z,98808.48
2023-02-02T17:34:19.746Z,98813.31
2023-02-02T17:37:26.180Z,98817.64
2023-02-02T17:40:32.527Z,98823.75
2023-02-02T17:43:37.038Z,98822.77
2023-02-02T17:46:43.243Z,98829.36
2023-02-02T17:49:49.545Z,98834.97
2023-02-02T17:52:55.828Z,98841.20
2023-02-02T17:56:00.486Z,98850.15
2023-02-02T17:59:07.057Z,98855.90
2023-02-02T18:02:16.589Z,98859.70
2023-02-02T18:05:23.143Z,98867.93
2023-02-02T18:08:29.841Z,98874.73
2023-02-02T18:11:36.133Z,98878.63
2023-02-02T18:14:42.601Z,98887.37
2023-02-02T18:17:49.034Z,98891.77
2023-02-02T18:20:55.281Z,98890.15
2023-02-02T18:24:01.587Z,98895.98
2023-02-02T18:27:06.194Z,98897.29
2023-02-02T18:30:14.700Z,98897.59
2023-02-02T18:33:20.869Z,98904.00
2023-02-02T18:36:27.193Z,98910.06
2023-02-02T18:39:32.297Z,98911.11
2023-02-02T18:42:38.638Z,98913.34
2023-02-02T18:45:43.258Z,98916.45
2023-02-02T18:48:49.467Z,98917.90
2023-02-02T18:51:55.813Z,98920.50
2023-02-02T18:55:00.409Z,98923.94
2023-02-02T18:58:10.683Z,98928.27
2023-02-02T19:01:18.882Z,98929.59
2023-02-02T19:04:25.219Z,98934.34
2023-02-02T19:07:46.983Z,98946.04
2023-02-02T19:11:01.682Z,98948.95
2023-02-02T19:14:16.587Z,98956.83
2023-02-02T19:17:25.208Z,98964.52
2023-02-02T19:20:32.533Z,98970.08
2023-02-02T19:23:39.323Z,98978.33
2023-02-02T19:26:49.658Z,98990.20
2023-02-02T19:30:01.589Z,98998.30
2023-02-02T19:33:13.762Z,98999.73
2023-02-02T19:36:21.715Z,99003.23
2023-02-02T19:39:31.953Z,99007.88
2023-02-02T19:42:45.156Z,99013.95
2023-02-02T19:45:52.101Z,99013.67
2023-02-02T19:49:05.926Z,99026.02
2023-02-02T19:52:20.289Z,99033.75
2023-02-02T19:55:29.225Z,99041.88
2023-02-02T19:58:38.503Z,99044.30
2023-02-02T20:01:46.084Z,99041.70
2023-02-02T20:05:01.529Z,99047.13
2023-02-02T20:08:18.035Z,99058.40
2023-02-02T20:11:33.169Z,99064.27
2023-02-02T20:14:41.590Z,99074.33
2023-02-02T20:17:47.924Z,99086.64
2023-02-02T20:20:54.039Z,99092.55
2023-02-02T20:24:00.581Z,99100.60
2023-02-02T20:27:15.140Z,99107.83
2023-02-02T20:30:28.456Z,99110.23
2023-02-02T20:33:35.195Z,99114.86
2023-02-02T20:36:44.327Z,99122.86
2023-02-02T20:39:54.057Z,99129.14
2023-02-02T20:43:00.313Z,99133.80
2023-02-02T20:46:06.768Z,99138.63
2023-02-02T20:49:13.393Z,99142.77
2023-02-02T20:52:23.976Z,99152.14
2023-02-02T20:55:30.470Z,99155.38
2023-02-02T20:58:35.032Z,99163.42
2023-02-02T21:01:41.509Z,99166.21
2023-02-02T21:04:49.225Z,99175.77
2023-02-02T21:07:55.813Z,99186.73
2023-02-02T21:11:02.274Z,99195.69
2023-02-02T21:14:08.880Z,99199.58
2023-02-02T21:17:16.128Z,99198.20
2023-02-02T21:20:23.247Z,99203.74
2023-02-02T21:23:29.541Z,99208.65
2023-02-02T21:26:34.089Z,99215.61
2023-02-02T21:29:40.737Z,99224.34
2023-02-02T21:32:47.054Z,99227.06
2023-02-02T21:35:51.571Z,99225.86
2023-02-02T21:39:07.330Z,99226.91
2023-02-02T21:42:18.394Z,99229.12
2023-02-02T21:45:36.939Z,99235.25
2023-02-02T21:48:44.225Z,99235.40
2023-02-02T21:51:50.867Z,99240.77
2023-02-02T21:54:57.653Z,99247.23
2023-02-02T21:58:13.083Z,99255.61
2023-02-02T22:01:23.469Z,99261.76
2023-02-02T22:04:30.647Z,99263.21
2023-02-02T22:07:36.917Z,99271.05
2023-02-02T22:10:45.534Z,99270.02
2023-02-02T22:13:52.150Z,99270.61
2023-02-02T22:17:00.545Z,99272.34
2023-02-02T22:20:20.409Z,99279.45
2023-02-02T22:23:28.649Z,99283.23
2023-02-02T22:26:36.717Z,99286.60
2023-02-02T22:29:42.997Z,99292.33
2023-02-02T22:32:49.279Z,99292.16
2023-02-02T22:35:54.147Z,99298.55
2023-02-02T22:39:00.463Z,99299.70
2023-02-02T22:42:04.993Z,99301.75
2023-02-02T22:45:12.586Z,99305.60
2023-02-02T22:48:19.137Z,99304.16
2023-02-02T22:51:25.401Z,99299.25
2023-02-02T22:54:32.196Z,99296.70
2023-02-02T22:57:38.806Z,99290.31
2023-02-02T23:00:45.084Z,99292.80
2023-02-02T23:03:49.784Z,99294.36
2023-02-02T23:06:56.125Z,99303.98
2023-02-02T23:10:00.660Z,99311.23
2023-02-02T23:13:07.517Z,99313.02
2023-02-02T23:16:13.875Z,99317.54
2023-02-02T23:19:18.520Z,99318.42
2023-02-02T23:22:24.809Z,99325.65
2023-02-02T23:25:29.330Z,99327.21
2023-02-02T23:28:35.786Z,99333.48
2023-02-02T23:31:42.138Z,99340.81
2023-02-02T23:34:46.705Z,99341.71
2023-02-02T23:37:52.960Z,99343.57
2023-02-02T23:41:00.555Z,99347.13
2023-02-02T23:44:07.319Z,99352.58
2023-02-02T23:47:14.001Z,99355.90
2023-02-02T23:50:20.391Z,99362.70
2023-02-02T23:53:25.164Z,99367.19
2023-02-02T23:56:30.064Z,99363.84
2023-02-02T23:59:34.672Z,99366.43
